Monday, December 18, 2017, 7:56 AM EST
Back to Local

KLGA, New York La Guardia Airport

Location: Astoria, NY, United States Lat: 40.783
Local Time: 7:56 AM EST (12:56 GMT) Lon: -73.883
Time Zone: US/Eastern Elev: 22 ft

Show me the last for .
Show Decoded

2017-12-18 06:51 METAR KLGA 181151Z 05005KT 10SM OVC011 02/M01 A3013 RMK AO2 SLP203 60002 70002
                 T00221011 10028 20011 56005 $ =
2017-12-18 05:51 METAR KLGA 181051Z 05008KT 10SM BKN013 OVC050 02/M01 A3014 RMK AO2 SLP204
                 T00221011 $ =
2017-12-18 04:58 METAR KLGA 180958Z 05006KT 10SM BKN014 OVC050 02/M02 A3015 RMK AO2 T00221017 $ =
2017-12-18 04:51 METAR KLGA 180951Z 05008KT 10SM FEW020 BKN045 OVC060 02/M02 A3014 RMK AO2
                 RAE0853 SLP207 P0000 T00171017 $ =
2017-12-18 03:51 METAR KLGA 180851Z 07007KT 10SM -RA FEW020 BKN041 OVC060 02/M02 A3015 RMK AO2
                 SLP208 P0002 60002 T00171022 58015 $ =
2017-12-18 03:14 METAR KLGA 180814Z 09005KT 10SM -RA SCT018 SCT028 OVC037 02/M03 A3017 RMK AO2
                 CIG 030 R22 SW P0001 T00171033 $ =
2017-12-18 02:51 METAR KLGA 180751Z COR 09006KT 10SM -RA BKN018 OVC027 02/M04 A3018 RMK AO2 RAB17
                 SLP220 P0000 T00171039 $ =
2017-12-18 01:51 METAR KLGA 180651Z 08006KT 10SM OVC019 02/M05 A3019 RMK AO2 SLP223 T00171050 $ =
2017-12-18 00:51 METAR KLGA 180551Z 08006KT 10SM OVC019 02/M04 A3019 RMK AO2 SLP223 T00171044
                 10022 20017 56016 $ =
2017-12-17 23:51 METAR KLGA 180451Z 09006KT 10SM OVC019 02/M04 A3020 RMK AO2 SLP227 T00171044
                 400280006 $ =
2017-12-17 22:51 METAR KLGA 180351Z 08007KT 10SM OVC019 02/M04 A3022 RMK AO2 SLP231 T00171044 $ =
2017-12-17 21:51 METAR KLGA 180251Z 08006KT 10SM OVC019 02/M04 A3024 RMK AO2 SLP239 T00171039
                 58010 $ =
2017-12-17 20:51 METAR KLGA 180151Z 06006KT 10SM OVC020 02/M04 A3025 RMK AO2 SLP244 T00171039 $ =
2017-12-17 20:20 METAR KLGA 180120Z 08007KT 10SM BKN024 BKN150 OVC250 02/M04 A3025 RMK AO2
                 T00221039 $ =
2017-12-17 19:51 METAR KLGA 180051Z COR 08006KT 10SM FEW025 BKN140 BKN250 02/M04 A3027 RMK AO2
                 SLP248 T00221039 $ =
2017-12-17 18:51 METAR KLGA 172351Z 06006KT 10SM SCT130 OVC250 02/M04 A3027 RMK AO2 SLP249
                 T00221039 10028 20022 53009 $ =
2017-12-17 17:51 METAR KLGA 172251Z 06006KT 10SM FEW130 BKN250 02/M04 A3025 RMK AO2 SLP243
                 T00221039 $ =
2017-12-17 16:51 METAR KLGA 172151Z 06006KT 10SM FEW050 SCT130 OVC250 02/M04 A3024 RMK AO2 SLP240
                 T00221039 $ =
2017-12-17 15:51 METAR KLGA 172051Z 06005KT 10SM FEW050 BKN130 OVC250 02/M04 A3024 RMK AO2 SLP240
                 T00221039 55006 $ =
2017-12-17 14:51 METAR KLGA 171951Z 05005KT 10SM FEW015 SCT050 BKN130 OVC250 03/M04 A3023 RMK AO2
                 SLP237 T00281044 $ =
2017-12-17 13:51 METAR KLGA 171851Z 04005KT 10SM FEW015 FEW048 BKN100 OVC250 02/M05 A3024 RMK AO2
                 SLP239 T00221050 $ =
2017-12-17 12:51 METAR KLGA 171751Z 00000KT 10SM BKN048 BKN060 OVC100 02/M06 A3026 RMK AO2 SLP246
                 T00221056 10022 20006 58016 $ =
2017-12-17 11:51 METAR KLGA 171651Z 07004KT 10SM BKN046 BKN060 OVC100 02/M06 A3028 RMK AO2 SLP253
                 T00171061 $ =
2017-12-17 10:51 METAR KLGA 171551Z 06004KT 10SM BKN045 BKN060 OVC100 02/M06 A3029 RMK AO2 SLP256
                 T00171061 $ =
2017-12-17 09:51 METAR KLGA 171451Z 03004KT 10SM FEW015 BKN042 BKN060 OVC140 02/M06 A3031 RMK AO2
                 SLP262 T00171061 53012 $ =
2017-12-17 08:51 METAR KLGA 171351Z 04004KT 10SM BKN041 BKN060 OVC190 01/M06 A3029 RMK AO2 SLP257
                 T00111061 $ =

Support USWX by starting your Amazon purchase here.